Parrish, Illinois
Current Conditions -  °F | °C
As of 10:55 PM on Saturday 22 Nov 2014 (Local Time) from KHSB Reporting Station
Clear Clear  
Wind Chill: 55°   Ceiling: Unl
Heat Index: 55°   Visibility: 10mi
Dew Point: 38°   Wind: 7mph
Humidity: 53%   Direction: 180°S
Pressure: 29.99"   Gusts: NA
Location:  37.8635°N, 88.7619°W
Report Text: KHSB 230455Z AUTO 18006KT 10SM CLR 13/03 A2999 RMK AO2 T01250031
Loading
Personal Weather Stations






























Interactive Weather Map New forecast layout! Learn more

10-Day Weather Forecast

Advertisements
Track Severe Weather on mobile